Terminal Aerodrome Forecast
Issued by NWS Tuscon, AZ

Home | Current Version | Previous Version | Text Only | Print | Product List | Glossary On
Versions: 1 2 3 4 5 6 7 8 9 10 11 12 13 14 15 16 17
000
FTUS45 KTWC 041725
TAFDUG
TAF
KDUG 041725Z 0418/0518 17006KT P6SM SCT080 BKN100 OVC180
     FM042000 19009KT P6SM VCSH SCT080 BKN100 OVC150
     FM042300 23007KT P6SM VCSH FEW060 BKN100 OVC180
     FM050400 VRB05KT P6SM BKN100 OVC200=

USA.gov is the U.S. government's official web portal to all federal, state and local government web resources and services.